sensor_id;sensor_type;location;lat;lon;timestamp;P1;durP1;ratioP1;P2;durP2;ratioP2
17949;SDS011;9100;48.700;9.316;2022-10-16T00:00:41;1.9;;;1.7;;
17949;SDS011;9100;48.700;9.316;2022-10-16T00:01:40;1.9;;;1.7;;
17949;SDS011;9100;48.700;9.316;2022-10-16T00:02:40;1.9;;;1.7;;
17949;SDS011;9100;48.700;9.316;2022-10-16T00:02:50;7.2;;;2.7;;
17949;SDS011;9100;48.700;9.316;2022-10-16T00:03:41;7.2;;;2.7;;
17949;SDS011;9100;48.700;9.316;2022-10-16T00:04:40;7.2;;;2.7;;
17949;SDS011;9100;48.700;9.316;2022-10-16T00:05:41;7.2;;;2.7;;
17949;SDS011;9100;48.700;9.316;2022-10-16T00:06:40;7.2;;;2.7;;
17949;SDS011;9100;48.700;9.316;2022-10-16T00:07:40;7.2;;;2.7;;
17949;SDS011;9100;48.700;9.316;2022-10-16T00:07:51;3.6;;;2.4;;
17949;SDS011;9100;48.700;9.316;2022-10-16T00:08:40;3.6;;;2.4;;
17949;SDS011;9100;48.700;9.316;2022-10-16T00:09:40;3.6;;;2.4;;
17949;SDS011;9100;48.700;9.316;2022-10-16T00:10:40;3.6;;;2.4;;
17949;SDS011;9100;48.700;9.316;2022-10-16T00:11:40;3.6;;;2.4;;
17949;SDS011;9100;48.700;9.316;2022-10-16T00:12:40;3.6;;;2.4;;
17949;SDS011;9100;48.700;9.316;2022-10-16T00:12:50;10.1;;;2.8;;
17949;SDS011;9100;48.700;9.316;2022-10-16T00:13:41;10.1;;;2.8;;
17949;SDS011;9100;48.700;9.316;2022-10-16T00:14:40;10.1;;;2.8;;
17949;SDS011;9100;48.700;9.316;2022-10-16T00:15:41;10.1;;;2.8;;
17949;SDS011;9100;48.700;9.316;2022-10-16T00:16:41;10.1;;;2.8;;
17949;SDS011;9100;48.700;9.316;2022-10-16T00:17:40;10.1;;;2.8;;
17949;SDS011;9100;48.700;9.316;2022-10-16T00:17:50;3.1;;;2.2;;
17949;SDS011;9100;48.700;9.316;2022-10-16T00:18:40;3.1;;;2.2;;
17949;SDS011;9100;48.700;9.316;2022-10-16T00:19:40;3.1;;;2.2;;
17949;SDS011;9100;48.700;9.316;2022-10-16T00:20:40;3.1;;;2.2;;
17949;SDS011;9100;48.700;9.316;2022-10-16T00:21:40;3.1;;;2.2;;
17949;SDS011;9100;48.700;9.316;2022-10-16T00:22:40;3.1;;;2.2;;
17949;SDS011;9100;48.700;9.316;2022-10-16T00:22:50;5.4;;;2.6;;
17949;SDS011;9100;48.700;9.316;2022-10-16T00:23:41;5.4;;;2.6;;
17949;SDS011;9100;48.700;9.316;2022-10-16T00:24:40;5.4;;;2.6;;
17949;SDS011;9100;48.700;9.316;2022-10-16T00:25:41;5.4;;;2.6;;
17949;SDS011;9100;48.700;9.316;2022-10-16T00:26:41;5.4;;;2.6;;
17949;SDS011;9100;48.700;9.316;2022-10-16T00:27:40;5.4;;;2.6;;
17949;SDS011;9100;48.700;9.316;2022-10-16T00:27:50;5.1;;;2.3;;
17949;SDS011;9100;48.700;9.316;2022-10-16T00:28:40;5.1;;;2.3;;
17949;SDS011;9100;48.700;9.316;2022-10-16T00:29:40;5.1;;;2.3;;
17949;SDS011;9100;48.700;9.316;2022-10-16T00:30:41;5.1;;;2.3;;
17949;SDS011;9100;48.700;9.316;2022-10-16T00:31:41;5.1;;;2.3;;
17949;SDS011;9100;48.700;9.316;2022-10-16T00:32:40;5.1;;;2.3;;
17949;SDS011;9100;48.700;9.316;2022-10-16T00:32:50;3;;;2.8;;
17949;SDS011;9100;48.700;9.316;2022-10-16T00:33:41;3;;;2.8;;
17949;SDS011;9100;48.700;9.316;2022-10-16T00:34:40;3;;;2.8;;
17949;SDS011;9100;48.700;9.316;2022-10-16T00:35:41;3;;;2.8;;
17949;SDS011;9100;48.700;9.316;2022-10-16T00:36:40;3;;;2.8;;
17949;SDS011;9100;48.700;9.316;2022-10-16T00:37:41;3;;;2.8;;
17949;SDS011;9100;48.700;9.316;2022-10-16T00:37:50;4.6;;;2.9;;
17949;SDS011;9100;48.700;9.316;2022-10-16T00:38:40;4.6;;;2.9;;
17949;SDS011;9100;48.700;9.316;2022-10-16T00:39:40;4.6;;;2.9;;
17949;SDS011;9100;48.700;9.316;2022-10-16T00:40:40;4.6;;;2.9;;
17949;SDS011;9100;48.700;9.316;2022-10-16T00:41:40;4.6;;;2.9;;
17949;SDS011;9100;48.700;9.316;2022-10-16T00:42:40;4.6;;;2.9;;
17949;SDS011;9100;48.700;9.316;2022-10-16T00:42:50;2.9;;;2.7;;
17949;SDS011;9100;48.700;9.316;2022-10-16T00:43:41;2.9;;;2.7;;
17949;SDS011;9100;48.700;9.316;2022-10-16T00:44:42;2.9;;;2.7;;
17949;SDS011;9100;48.700;9.316;2022-10-16T00:45:41;2.9;;;2.7;;
17949;SDS011;9100;48.700;9.316;2022-10-16T00:46:41;2.9;;;2.7;;
17949;SDS011;9100;48.700;9.316;2022-10-16T00:47:42;2.9;;;2.7;;
17949;SDS011;9100;48.700;9.316;2022-10-16T00:47:51;3;;;2.5;;
17949;SDS011;9100;48.700;9.316;2022-10-16T00:48:41;3;;;2.5;;
17949;SDS011;9100;48.700;9.316;2022-10-16T00:49:40;3;;;2.5;;
17949;SDS011;9100;48.700;9.316;2022-10-16T00:50:40;3;;;2.5;;
17949;SDS011;9100;48.700;9.316;2022-10-16T00:51:41;3;;;2.5;;
17949;SDS011;9100;48.700;9.316;2022-10-16T00:52:41;3;;;2.5;;
17949;SDS011;9100;48.700;9.316;2022-10-16T00:52:52;5;;;2.9;;
17949;SDS011;9100;48.700;9.316;2022-10-16T00:53:40;5;;;2.9;;
17949;SDS011;9100;48.700;9.316;2022-10-16T00:54:40;5;;;2.9;;
17949;SDS011;9100;48.700;9.316;2022-10-16T00:55:40;5;;;2.9;;
17949;SDS011;9100;48.700;9.316;2022-10-16T00:56:41;5;;;2.9;;
17949;SDS011;9100;48.700;9.316;2022-10-16T00:57:41;5;;;2.9;;
17949;SDS011;9100;48.700;9.316;2022-10-16T00:57:51;3.1;;;2.6;;
17949;SDS011;9100;48.700;9.316;2022-10-16T00:58:40;3.1;;;2.6;;
17949;SDS011;9100;48.700;9.316;2022-10-16T00:59:41;3.1;;;2.6;;
17949;SDS011;9100;48.700;9.316;2022-10-16T01:00:41;3.1;;;2.6;;
17949;SDS011;9100;48.700;9.316;2022-10-16T01:01:40;3.1;;;2.6;;
17949;SDS011;9100;48.700;9.316;2022-10-16T01:02:41;3.1;;;2.6;;
17949;SDS011;9100;48.700;9.316;2022-10-16T01:02:52;4.4;;;2.6;;
17949;SDS011;9100;48.700;9.316;2022-10-16T01:03:40;4.4;;;2.6;;
17949;SDS011;9100;48.700;9.316;2022-10-16T01:04:41;4.4;;;2.6;;
17949;SDS011;9100;48.700;9.316;2022-10-16T01:05:42;4.4;;;2.6;;
17949;SDS011;9100;48.700;9.316;2022-10-16T01:06:42;4.4;;;2.6;;
17949;SDS011;9100;48.700;9.316;2022-10-16T01:07:41;4.4;;;2.6;;
17949;SDS011;9100;48.700;9.316;2022-10-16T01:07:53;2.6;;;2.5;;
17949;SDS011;9100;48.700;9.316;2022-10-16T01:08:44;2.6;;;2.5;;
17949;SDS011;9100;48.700;9.316;2022-10-16T01:09:44;2.6;;;2.5;;
17949;SDS011;9100;48.700;9.316;2022-10-16T01:10:42;2.6;;;2.5;;
17949;SDS011;9100;48.700;9.316;2022-10-16T01:11:44;2.6;;;2.5;;
17949;SDS011;9100;48.700;9.316;2022-10-16T01:12:41;2.6;;;2.5;;
17949;SDS011;9100;48.700;9.316;2022-10-16T01:12:52;2.9;;;2.5;;
17949;SDS011;9100;48.700;9.316;2022-10-16T01:13:41;2.9;;;2.5;;
17949;SDS011;9100;48.700;9.316;2022-10-16T01:14:43;2.9;;;2.5;;
17949;SDS011;9100;48.700;9.316;2022-10-16T01:15:42;2.9;;;2.5;;
17949;SDS011;9100;48.700;9.316;2022-10-16T01:16:43;2.9;;;2.5;;
17949;SDS011;9100;48.700;9.316;2022-10-16T01:17:41;2.9;;;2.5;;
17949;SDS011;9100;48.700;9.316;2022-10-16T01:17:51;5.8;;;3.1;;
17949;SDS011;9100;48.700;9.316;2022-10-16T01:18:42;5.8;;;3.1;;
17949;SDS011;9100;48.700;9.316;2022-10-16T01:19:44;5.8;;;3.1;;
17949;SDS011;9100;48.700;9.316;2022-10-16T01:20:42;5.8;;;3.1;;
17949;SDS011;9100;48.700;9.316;2022-10-16T01:21:41;5.8;;;3.1;;
17949;SDS011;9100;48.700;9.316;2022-10-16T01:22:44;5.8;;;3.1;;
17949;SDS011;9100;48.700;9.316;2022-10-16T01:22:56;3.5;;;2.8;;
17949;SDS011;9100;48.700;9.316;2022-10-16T01:23:43;3.5;;;2.8;;
17949;SDS011;9100;48.700;9.316;2022-10-16T01:24:41;3.5;;;2.8;;
17949;SDS011;9100;48.700;9.316;2022-10-16T01:25:48;3.5;;;2.8;;
17949;SDS011;9100;48.700;9.316;2022-10-16T01:26:44;3.5;;;2.8;;
17949;SDS011;9100;48.700;9.316;2022-10-16T01:27:40;3.5;;;2.8;;
17949;SDS011;9100;48.700;9.316;2022-10-16T01:27:50;4.6;;;2.6;;
17949;SDS011;9100;48.700;9.316;2022-10-16T01:28:41;4.6;;;2.6;;
17949;SDS011;9100;48.700;9.316;2022-10-16T01:29:42;4.6;;;2.6;;
17949;SDS011;9100;48.700;9.316;2022-10-16T01:30:41;4.6;;;2.6;;
17949;SDS011;9100;48.700;9.316;2022-10-16T01:31:41;4.6;;;2.6;;
17949;SDS011;9100;48.700;9.316;2022-10-16T01:32:41;4.6;;;2.6;;
17949;SDS011;9100;48.700;9.316;2022-10-16T01:32:52;4;;;2.8;;
17949;SDS011;9100;48.700;9.316;2022-10-16T01:33:42;4;;;2.8;;
17949;SDS011;9100;48.700;9.316;2022-10-16T01:34:42;4;;;2.8;;
17949;SDS011;9100;48.700;9.316;2022-10-16T01:35:41;4;;;2.8;;
17949;SDS011;9100;48.700;9.316;2022-10-16T01:36:42;4;;;2.8;;
17949;SDS011;9100;48.700;9.316;2022-10-16T01:37:42;4;;;2.8;;
17949;SDS011;9100;48.700;9.316;2022-10-16T01:37:51;5.5;;;3;;
17949;SDS011;9100;48.700;9.316;2022-10-16T01:38:40;5.5;;;3;;
17949;SDS011;9100;48.700;9.316;2022-10-16T01:39:41;5.5;;;3;;
17949;SDS011;9100;48.700;9.316;2022-10-16T01:40:41;5.5;;;3;;
17949;SDS011;9100;48.700;9.316;2022-10-16T01:41:41;5.5;;;3;;
17949;SDS011;9100;48.700;9.316;2022-10-16T01:42:41;5.5;;;3;;
17949;SDS011;9100;48.700;9.316;2022-10-16T01:42:52;6.4;;;2.6;;
17949;SDS011;9100;48.700;9.316;2022-10-16T01:43:41;6.4;;;2.6;;
17949;SDS011;9100;48.700;9.316;2022-10-16T01:44:41;6.4;;;2.6;;
17949;SDS011;9100;48.700;9.316;2022-10-16T01:45:41;6.4;;;2.6;;
17949;SDS011;9100;48.700;9.316;2022-10-16T01:46:41;6.4;;;2.6;;
17949;SDS011;9100;48.700;9.316;2022-10-16T01:47:40;6.4;;;2.6;;
17949;SDS011;9100;48.700;9.316;2022-10-16T01:47:50;2.4;;;2.1;;
17949;SDS011;9100;48.700;9.316;2022-10-16T01:48:41;2.4;;;2.1;;
17949;SDS011;9100;48.700;9.316;2022-10-16T01:49:41;2.4;;;2.1;;
17949;SDS011;9100;48.700;9.316;2022-10-16T01:50:41;2.4;;;2.1;;
17949;SDS011;9100;48.700;9.316;2022-10-16T01:51:41;2.4;;;2.1;;
17949;SDS011;9100;48.700;9.316;2022-10-16T01:52:41;2.4;;;2.1;;
17949;SDS011;9100;48.700;9.316;2022-10-16T01:52:51;2.5;;;2.4;;
17949;SDS011;9100;48.700;9.316;2022-10-16T01:53:40;2.5;;;2.4;;
17949;SDS011;9100;48.700;9.316;2022-10-16T01:54:42;2.5;;;2.4;;
17949;SDS011;9100;48.700;9.316;2022-10-16T01:55:41;2.5;;;2.4;;
17949;SDS011;9100;48.700;9.316;2022-10-16T01:56:40;2.5;;;2.4;;
17949;SDS011;9100;48.700;9.316;2022-10-16T01:57:41;2.5;;;2.4;;
17949;SDS011;9100;48.700;9.316;2022-10-16T01:57:51;2.6;;;2.4;;
17949;SDS011;9100;48.700;9.316;2022-10-16T01:58:42;2.6;;;2.4;;
17949;SDS011;9100;48.700;9.316;2022-10-16T01:59:42;2.6;;;2.4;;
17949;SDS011;9100;48.700;9.316;2022-10-16T02:00:42;2.6;;;2.4;;
17949;SDS011;9100;48.700;9.316;2022-10-16T02:01:42;2.6;;;2.4;;
17949;SDS011;9100;48.700;9.316;2022-10-16T02:02:41;2.6;;;2.4;;
17949;SDS011;9100;48.700;9.316;2022-10-16T02:02:51;2.6;;;2.4;;
17949;SDS011;9100;48.700;9.316;2022-10-16T02:03:40;2.6;;;2.4;;
17949;SDS011;9100;48.700;9.316;2022-10-16T02:04:42;2.6;;;2.4;;
17949;SDS011;9100;48.700;9.316;2022-10-16T02:05:41;2.6;;;2.4;;
17949;SDS011;9100;48.700;9.316;2022-10-16T02:06:40;2.6;;;2.4;;
17949;SDS011;9100;48.700;9.316;2022-10-16T02:07:41;2.6;;;2.4;;
17949;SDS011;9100;48.700;9.316;2022-10-16T02:07:51;3.9;;;2.6;;
17949;SDS011;9100;48.700;9.316;2022-10-16T02:08:40;3.9;;;2.6;;
17949;SDS011;9100;48.700;9.316;2022-10-16T02:09:40;3.9;;;2.6;;
17949;SDS011;9100;48.700;9.316;2022-10-16T02:10:41;3.9;;;2.6;;
17949;SDS011;9100;48.700;9.316;2022-10-16T02:11:41;3.9;;;2.6;;
17949;SDS011;9100;48.700;9.316;2022-10-16T02:12:41;3.9;;;2.6;;
17949;SDS011;9100;48.700;9.316;2022-10-16T02:12:53;4.7;;;2.8;;
17949;SDS011;9100;48.700;9.316;2022-10-16T02:13:41;4.7;;;2.8;;
17949;SDS011;9100;48.700;9.316;2022-10-16T02:14:41;4.7;;;2.8;;
17949;SDS011;9100;48.700;9.316;2022-10-16T02:15:41;4.7;;;2.8;;
17949;SDS011;9100;48.700;9.316;2022-10-16T02:16:42;4.7;;;2.8;;
17949;SDS011;9100;48.700;9.316;2022-10-16T02:17:41;4.7;;;2.8;;
17949;SDS011;9100;48.700;9.316;2022-10-16T02:17:51;4.9;;;2.6;;
17949;SDS011;9100;48.700;9.316;2022-10-16T02:18:41;4.9;;;2.6;;
17949;SDS011;9100;48.700;9.316;2022-10-16T02:19:41;4.9;;;2.6;;
17949;SDS011;9100;48.700;9.316;2022-10-16T02:20:43;4.9;;;2.6;;
17949;SDS011;9100;48.700;9.316;2022-10-16T02:21:43;4.9;;;2.6;;
17949;SDS011;9100;48.700;9.316;2022-10-16T02:22:42;4.9;;;2.6;;
17949;SDS011;9100;48.700;9.316;2022-10-16T02:22:51;3.5;;;3.3;;
17949;SDS011;9100;48.700;9.316;2022-10-16T02:23:45;3.5;;;3.3;;
17949;SDS011;9100;48.700;9.316;2022-10-16T02:24:42;3.5;;;3.3;;
17949;SDS011;9100;48.700;9.316;2022-10-16T02:25:41;3.5;;;3.3;;
17949;SDS011;9100;48.700;9.316;2022-10-16T02:26:41;3.5;;;3.3;;
17949;SDS011;9100;48.700;9.316;2022-10-16T02:27:41;3.5;;;3.3;;
17949;SDS011;9100;48.700;9.316;2022-10-16T02:27:52;3.4;;;2.6;;
17949;SDS011;9100;48.700;9.316;2022-10-16T02:28:42;3.4;;;2.6;;
17949;SDS011;9100;48.700;9.316;2022-10-16T02:29:41;3.4;;;2.6;;
17949;SDS011;9100;48.700;9.316;2022-10-16T02:30:41;3.4;;;2.6;;
17949;SDS011;9100;48.700;9.316;2022-10-16T02:31:41;3.4;;;2.6;;
17949;SDS011;9100;48.700;9.316;2022-10-16T02:32:41;3.4;;;2.6;;
17949;SDS011;9100;48.700;9.316;2022-10-16T02:32:51;3.9;;;2.8;;
17949;SDS011;9100;48.700;9.316;2022-10-16T02:33:40;3.9;;;2.8;;
17949;SDS011;9100;48.700;9.316;2022-10-16T02:34:40;3.9;;;2.8;;
17949;SDS011;9100;48.700;9.316;2022-10-16T02:35:41;3.9;;;2.8;;
17949;SDS011;9100;48.700;9.316;2022-10-16T02:36:40;3.9;;;2.8;;
17949;SDS011;9100;48.700;9.316;2022-10-16T02:37:40;3.9;;;2.8;;
17949;SDS011;9100;48.700;9.316;2022-10-16T02:37:51;6.4;;;2.9;;
17949;SDS011;9100;48.700;9.316;2022-10-16T02:38:40;6.4;;;2.9;;
17949;SDS011;9100;48.700;9.316;2022-10-16T02:39:40;6.4;;;2.9;;
17949;SDS011;9100;48.700;9.316;2022-10-16T02:40:41;6.4;;;2.9;;
17949;SDS011;9100;48.700;9.316;2022-10-16T02:41:41;6.4;;;2.9;;
17949;SDS011;9100;48.700;9.316;2022-10-16T02:42:41;6.4;;;2.9;;
17949;SDS011;9100;48.700;9.316;2022-10-16T02:42:51;4.2;;;3.2;;
17949;SDS011;9100;48.700;9.316;2022-10-16T02:43:41;4.2;;;3.2;;
17949;SDS011;9100;48.700;9.316;2022-10-16T02:44:40;4.2;;;3.2;;
17949;SDS011;9100;48.700;9.316;2022-10-16T02:45:41;4.2;;;3.2;;
17949;SDS011;9100;48.700;9.316;2022-10-16T02:46:41;4.2;;;3.2;;
17949;SDS011;9100;48.700;9.316;2022-10-16T02:47:41;4.2;;;3.2;;
17949;SDS011;9100;48.700;9.316;2022-10-16T02:47:51;7.9;;;3.4;;
17949;SDS011;9100;48.700;9.316;2022-10-16T02:48:40;7.9;;;3.4;;
17949;SDS011;9100;48.700;9.316;2022-10-16T02:49:40;7.9;;;3.4;;
17949;SDS011;9100;48.700;9.316;2022-10-16T02:50:40;7.9;;;3.4;;
17949;SDS011;9100;48.700;9.316;2022-10-16T02:51:40;7.9;;;3.4;;
17949;SDS011;9100;48.700;9.316;2022-10-16T02:52:40;7.9;;;3.4;;
17949;SDS011;9100;48.700;9.316;2022-10-16T02:52:51;9.2;;;2.7;;
17949;SDS011;9100;48.700;9.316;2022-10-16T02:53:40;9.2;;;2.7;;
17949;SDS011;9100;48.700;9.316;2022-10-16T02:54:40;9.2;;;2.7;;
17949;SDS011;9100;48.700;9.316;2022-10-16T02:55:41;9.2;;;2.7;;
17949;SDS011;9100;48.700;9.316;2022-10-16T02:56:41;9.2;;;2.7;;
17949;SDS011;9100;48.700;9.316;2022-10-16T02:57:41;9.2;;;2.7;;
17949;SDS011;9100;48.700;9.316;2022-10-16T02:57:51;4.6;;;2.7;;
17949;SDS011;9100;48.700;9.316;2022-10-16T02:58:40;4.6;;;2.7;;
17949;SDS011;9100;48.700;9.316;2022-10-16T02:59:41;4.6;;;2.7;;
17949;SDS011;9100;48.700;9.316;2022-10-16T03:00:41;4.6;;;2.7;;
17949;SDS011;9100;48.700;9.316;2022-10-16T03:01:41;4.6;;;2.7;;
17949;SDS011;9100;48.700;9.316;2022-10-16T03:02:40;4.6;;;2.7;;
17949;SDS011;9100;48.700;9.316;2022-10-16T03:02:51;3.3;;;3;;
17949;SDS011;9100;48.700;9.316;2022-10-16T03:03:40;3.3;;;3;;
17949;SDS011;9100;48.700;9.316;2022-10-16T03:04:40;3.3;;;3;;
17949;SDS011;9100;48.700;9.316;2022-10-16T03:05:42;3.3;;;3;;
17949;SDS011;9100;48.700;9.316;2022-10-16T03:06:41;3.3;;;3;;
17949;SDS011;9100;48.700;9.316;2022-10-16T03:07:41;3.3;;;3;;
17949;SDS011;9100;48.700;9.316;2022-10-16T03:07:51;2.8;;;2.6;;
17949;SDS011;9100;48.700;9.316;2022-10-16T03:08:41;2.8;;;2.6;;
17949;SDS011;9100;48.700;9.316;2022-10-16T03:09:40;2.8;;;2.6;;
17949;SDS011;9100;48.700;9.316;2022-10-16T03:10:40;2.8;;;2.6;;
17949;SDS011;9100;48.700;9.316;2022-10-16T03:11:41;2.8;;;2.6;;
17949;SDS011;9100;48.700;9.316;2022-10-16T03:12:41;2.8;;;2.6;;
17949;SDS011;9100;48.700;9.316;2022-10-16T03:12:51;5.5;;;2.8;;
17949;SDS011;9100;48.700;9.316;2022-10-16T03:13:40;5.5;;;2.8;;
17949;SDS011;9100;48.700;9.316;2022-10-16T03:14:41;5.5;;;2.8;;
17949;SDS011;9100;48.700;9.316;2022-10-16T03:15:41;5.5;;;2.8;;
17949;SDS011;9100;48.700;9.316;2022-10-16T03:16:41;5.5;;;2.8;;
17949;SDS011;9100;48.700;9.316;2022-10-16T03:17:41;5.5;;;2.8;;
17949;SDS011;9100;48.700;9.316;2022-10-16T03:17:51;4.5;;;3.3;;
17949;SDS011;9100;48.700;9.316;2022-10-16T03:18:41;4.5;;;3.3;;
17949;SDS011;9100;48.700;9.316;2022-10-16T03:19:40;4.5;;;3.3;;
17949;SDS011;9100;48.700;9.316;2022-10-16T03:20:42;4.5;;;3.3;;
17949;SDS011;9100;48.700;9.316;2022-10-16T03:21:40;4.5;;;3.3;;
17949;SDS011;9100;48.700;9.316;2022-10-16T03:22:40;4.5;;;3.3;;
17949;SDS011;9100;48.700;9.316;2022-10-16T03:22:51;6.9;;;2.6;;
17949;SDS011;9100;48.700;9.316;2022-10-16T03:23:40;6.9;;;2.6;;
17949;SDS011;9100;48.700;9.316;2022-10-16T03:24:41;6.9;;;2.6;;
17949;SDS011;9100;48.700;9.316;2022-10-16T03:25:41;6.9;;;2.6;;
17949;SDS011;9100;48.700;9.316;2022-10-16T03:26:40;6.9;;;2.6;;
17949;SDS011;9100;48.700;9.316;2022-10-16T03:27:41;6.9;;;2.6;;
17949;SDS011;9100;48.700;9.316;2022-10-16T03:27:51;5.5;;;3.2;;
17949;SDS011;9100;48.700;9.316;2022-10-16T03:28:41;5.5;;;3.2;;
17949;SDS011;9100;48.700;9.316;2022-10-16T03:29:40;5.5;;;3.2;;
17949;SDS011;9100;48.700;9.316;2022-10-16T03:30:41;5.5;;;3.2;;
17949;SDS011;9100;48.700;9.316;2022-10-16T03:31:41;5.5;;;3.2;;
17949;SDS011;9100;48.700;9.316;2022-10-16T03:32:41;5.5;;;3.2;;
17949;SDS011;9100;48.700;9.316;2022-10-16T03:32:51;3;;;2.8;;
17949;SDS011;9100;48.700;9.316;2022-10-16T03:33:41;3;;;2.8;;
17949;SDS011;9100;48.700;9.316;2022-10-16T03:34:41;3;;;2.8;;
17949;SDS011;9100;48.700;9.316;2022-10-16T03:35:41;3;;;2.8;;
17949;SDS011;9100;48.700;9.316;2022-10-16T03:36:41;3;;;2.8;;
17949;SDS011;9100;48.700;9.316;2022-10-16T03:37:40;3;;;2.8;;
17949;SDS011;9100;48.700;9.316;2022-10-16T03:37:51;4.1;;;2.7;;
17949;SDS011;9100;48.700;9.316;2022-10-16T03:38:41;4.1;;;2.7;;
17949;SDS011;9100;48.700;9.316;2022-10-16T03:39:41;4.1;;;2.7;;
17949;SDS011;9100;48.700;9.316;2022-10-16T03:40:41;4.1;;;2.7;;
17949;SDS011;9100;48.700;9.316;2022-10-16T03:41:41;4.1;;;2.7;;
17949;SDS011;9100;48.700;9.316;2022-10-16T03:42:41;4.1;;;2.7;;
17949;SDS011;9100;48.700;9.316;2022-10-16T03:42:51;6.1;;;2.4;;
17949;SDS011;9100;48.700;9.316;2022-10-16T03:43:41;6.1;;;2.4;;
17949;SDS011;9100;48.700;9.316;2022-10-16T03:44:41;6.1;;;2.4;;
17949;SDS011;9100;48.700;9.316;2022-10-16T03:45:41;6.1;;;2.4;;
17949;SDS011;9100;48.700;9.316;2022-10-16T03:46:41;6.1;;;2.4;;
17949;SDS011;9100;48.700;9.316;2022-10-16T03:47:41;6.1;;;2.4;;
17949;SDS011;9100;48.700;9.316;2022-10-16T03:47:51;4.1;;;2.4;;
17949;SDS011;9100;48.700;9.316;2022-10-16T03:48:41;4.1;;;2.4;;
17949;SDS011;9100;48.700;9.316;2022-10-16T03:49:41;4.1;;;2.4;;
17949;SDS011;9100;48.700;9.316;2022-10-16T03:50:41;4.1;;;2.4;;
17949;SDS011;9100;48.700;9.316;2022-10-16T03:51:41;4.1;;;2.4;;
17949;SDS011;9100;48.700;9.316;2022-10-16T03:52:41;4.1;;;2.4;;
17949;SDS011;9100;48.700;9.316;2022-10-16T03:52:51;2.3;;;2.2;;
17949;SDS011;9100;48.700;9.316;2022-10-16T03:53:41;2.3;;;2.2;;
17949;SDS011;9100;48.700;9.316;2022-10-16T03:54:41;2.3;;;2.2;;
17949;SDS011;9100;48.700;9.316;2022-10-16T03:55:41;2.3;;;2.2;;
17949;SDS011;9100;48.700;9.316;2022-10-16T03:56:41;2.3;;;2.2;;
17949;SDS011;9100;48.700;9.316;2022-10-16T03:57:41;2.3;;;2.2;;
17949;SDS011;9100;48.700;9.316;2022-10-16T03:57:51;2.7;;;2.5;;
17949;SDS011;9100;48.700;9.316;2022-10-16T03:58:41;2.7;;;2.5;;
17949;SDS011;9100;48.700;9.316;2022-10-16T03:59:41;2.7;;;2.5;;
17949;SDS011;9100;48.700;9.316;2022-10-16T04:00:41;2.7;;;2.5;;
17949;SDS011;9100;48.700;9.316;2022-10-16T04:01:41;2.7;;;2.5;;
17949;SDS011;9100;48.700;9.316;2022-10-16T04:02:41;2.7;;;2.5;;
17949;SDS011;9100;48.700;9.316;2022-10-16T04:02:51;3.6;;;2.3;;
17949;SDS011;9100;48.700;9.316;2022-10-16T04:03:41;3.6;;;2.3;;
17949;SDS011;9100;48.700;9.316;2022-10-16T04:04:41;3.6;;;2.3;;
17949;SDS011;9100;48.700;9.316;2022-10-16T04:05:41;3.6;;;2.3;;
17949;SDS011;9100;48.700;9.316;2022-10-16T04:06:41;3.6;;;2.3;;
17949;SDS011;9100;48.700;9.316;2022-10-16T04:07:41;3.6;;;2.3;;
17949;SDS011;9100;48.700;9.316;2022-10-16T04:07:51;2.6;;;2.5;;
17949;SDS011;9100;48.700;9.316;2022-10-16T04:08:41;2.6;;;2.5;;
17949;SDS011;9100;48.700;9.316;2022-10-16T04:09:41;2.6;;;2.5;;
17949;SDS011;9100;48.700;9.316;2022-10-16T04:10:41;2.6;;;2.5;;
17949;SDS011;9100;48.700;9.316;2022-10-16T04:11:41;2.6;;;2.5;;
17949;SDS011;9100;48.700;9.316;2022-10-16T04:12:41;2.6;;;2.5;;
17949;SDS011;9100;48.700;9.316;2022-10-16T04:12:51;5;;;2.4;;
17949;SDS011;9100;48.700;9.316;2022-10-16T04:13:41;5;;;2.4;;
17949;SDS011;9100;48.700;9.316;2022-10-16T04:14:41;5;;;2.4;;
17949;SDS011;9100;48.700;9.316;2022-10-16T04:15:41;5;;;2.4;;
17949;SDS011;9100;48.700;9.316;2022-10-16T04:16:41;5;;;2.4;;
17949;SDS011;9100;48.700;9.316;2022-10-16T04:17:41;5;;;2.4;;
17949;SDS011;9100;48.700;9.316;2022-10-16T04:17:51;3;;;2.6;;
17949;SDS011;9100;48.700;9.316;2022-10-16T04:18:41;3;;;2.6;;
17949;SDS011;9100;48.700;9.316;2022-10-16T04:19:41;3;;;2.6;;
17949;SDS011;9100;48.700;9.316;2022-10-16T04:20:41;3;;;2.6;;
17949;SDS011;9100;48.700;9.316;2022-10-16T04:21:41;3;;;2.6;;
17949;SDS011;9100;48.700;9.316;2022-10-16T04:22:41;3;;;2.6;;
17949;SDS011;9100;48.700;9.316;2022-10-16T04:22:51;3.4;;;2.6;;
17949;SDS011;9100;48.700;9.316;2022-10-16T04:23:41;3.4;;;2.6;;
17949;SDS011;9100;48.700;9.316;2022-10-16T04:24:41;3.4;;;2.6;;
17949;SDS011;9100;48.700;9.316;2022-10-16T04:25:41;3.4;;;2.6;;
17949;SDS011;9100;48.700;9.316;2022-10-16T04:26:41;3.4;;;2.6;;
17949;SDS011;9100;48.700;9.316;2022-10-16T04:27:41;3.4;;;2.6;;
17949;SDS011;9100;48.700;9.316;2022-10-16T04:27:52;5.4;;;2.6;;
17949;SDS011;9100;48.700;9.316;2022-10-16T04:28:41;5.4;;;2.6;;
17949;SDS011;9100;48.700;9.316;2022-10-16T04:29:41;5.4;;;2.6;;
17949;SDS011;9100;48.700;9.316;2022-10-16T04:30:41;5.4;;;2.6;;
17949;SDS011;9100;48.700;9.316;2022-10-16T04:31:41;5.4;;;2.6;;
17949;SDS011;9100;48.700;9.316;2022-10-16T04:32:41;5.4;;;2.6;;
17949;SDS011;9100;48.700;9.316;2022-10-16T04:32:51;5.7;;;2.3;;
17949;SDS011;9100;48.700;9.316;2022-10-16T04:33:41;5.7;;;2.3;;
17949;SDS011;9100;48.700;9.316;2022-10-16T04:34:41;5.7;;;2.3;;
17949;SDS011;9100;48.700;9.316;2022-10-16T04:35:41;5.7;;;2.3;;
17949;SDS011;9100;48.700;9.316;2022-10-16T04:36:41;5.7;;;2.3;;
17949;SDS011;9100;48.700;9.316;2022-10-16T04:37:41;5.7;;;2.3;;
17949;SDS011;9100;48.700;9.316;2022-10-16T04:37:51;3;;;2.2;;
17949;SDS011;9100;48.700;9.316;2022-10-16T04:38:41;3;;;2.2;;
17949;SDS011;9100;48.700;9.316;2022-10-16T04:39:41;3;;;2.2;;
17949;SDS011;9100;48.700;9.316;2022-10-16T04:40:41;3;;;2.2;;
17949;SDS011;9100;48.700;9.316;2022-10-16T04:41:41;3;;;2.2;;
17949;SDS011;9100;48.700;9.316;2022-10-16T04:42:41;3;;;2.2;;
17949;SDS011;9100;48.700;9.316;2022-10-16T04:42:51;6.6;;;4.2;;
17949;SDS011;9100;48.700;9.316;2022-10-16T04:43:41;6.6;;;4.2;;
17949;SDS011;9100;48.700;9.316;2022-10-16T04:44:41;6.6;;;4.2;;
17949;SDS011;9100;48.700;9.316;2022-10-16T04:45:41;6.6;;;4.2;;
17949;SDS011;9100;48.700;9.316;2022-10-16T04:46:41;6.6;;;4.2;;
17949;SDS011;9100;48.700;9.316;2022-10-16T04:47:41;6.6;;;4.2;;
17949;SDS011;9100;48.700;9.316;2022-10-16T04:47:51;3.6;;;3.1;;
17949;SDS011;9100;48.700;9.316;2022-10-16T04:48:41;3.6;;;3.1;;
17949;SDS011;9100;48.700;9.316;2022-10-16T04:49:41;3.6;;;3.1;;
17949;SDS011;9100;48.700;9.316;2022-10-16T04:50:41;3.6;;;3.1;;
17949;SDS011;9100;48.700;9.316;2022-10-16T04:51:41;3.6;;;3.1;;
17949;SDS011;9100;48.700;9.316;2022-10-16T04:52:41;3.6;;;3.1;;
17949;SDS011;9100;48.700;9.316;2022-10-16T04:52:51;3;;;2.3;;
17949;SDS011;9100;48.700;9.316;2022-10-16T04:53:41;3;;;2.3;;
17949;SDS011;9100;48.700;9.316;2022-10-16T04:54:41;3;;;2.3;;
17949;SDS011;9100;48.700;9.316;2022-10-16T04:55:41;3;;;2.3;;
17949;SDS011;9100;48.700;9.316;2022-10-16T04:56:41;3;;;2.3;;
17949;SDS011;9100;48.700;9.316;2022-10-16T04:57:41;3;;;2.3;;
17949;SDS011;9100;48.700;9.316;2022-10-16T04:57:51;2.6;;;2.4;;
17949;SDS011;9100;48.700;9.316;2022-10-16T04:58:41;2.6;;;2.4;;
17949;SDS011;9100;48.700;9.316;2022-10-16T04:59:41;2.6;;;2.4;;
17949;SDS011;9100;48.700;9.316;2022-10-16T05:00:41;2.6;;;2.4;;
17949;SDS011;9100;48.700;9.316;2022-10-16T05:01:41;2.6;;;2.4;;
17949;SDS011;9100;48.700;9.316;2022-10-16T05:02:41;2.6;;;2.4;;
17949;SDS011;9100;48.700;9.316;2022-10-16T05:02:51;4;;;2.7;;
17949;SDS011;9100;48.700;9.316;2022-10-16T05:03:41;4;;;2.7;;
17949;SDS011;9100;48.700;9.316;2022-10-16T05:04:41;4;;;2.7;;
17949;SDS011;9100;48.700;9.316;2022-10-16T05:05:42;4;;;2.7;;
17949;SDS011;9100;48.700;9.316;2022-10-16T05:06:41;4;;;2.7;;
17949;SDS011;9100;48.700;9.316;2022-10-16T05:07:41;4;;;2.7;;
17949;SDS011;9100;48.700;9.316;2022-10-16T05:07:51;6.3;;;3.9;;
17949;SDS011;9100;48.700;9.316;2022-10-16T05:08:41;6.3;;;3.9;;
17949;SDS011;9100;48.700;9.316;2022-10-16T05:09:41;6.3;;;3.9;;
17949;SDS011;9100;48.700;9.316;2022-10-16T05:10:41;6.3;;;3.9;;
17949;SDS011;9100;48.700;9.316;2022-10-16T05:11:41;6.3;;;3.9;;
17949;SDS011;9100;48.700;9.316;2022-10-16T05:12:41;6.3;;;3.9;;
17949;SDS011;9100;48.700;9.316;2022-10-16T05:12:51;3.1;;;2.9;;
17949;SDS011;9100;48.700;9.316;2022-10-16T05:13:41;3.1;;;2.9;;
17949;SDS011;9100;48.700;9.316;2022-10-16T05:14:41;3.1;;;2.9;;
17949;SDS011;9100;48.700;9.316;2022-10-16T05:15:41;3.1;;;2.9;;
17949;SDS011;9100;48.700;9.316;2022-10-16T05:16:41;3.1;;;2.9;;
17949;SDS011;9100;48.700;9.316;2022-10-16T05:17:41;3.1;;;2.9;;